createdAt,value
2022-12-08T00:01:19.060Z,99231.88
2022-12-08T00:03:46.427Z,99238.13
2022-12-08T00:06:42.660Z,99236.56
2022-12-08T00:09:13.746Z,99220.97
2022-12-08T00:11:40.690Z,99225.06
2022-12-08T00:14:07.459Z,99215.28
2022-12-08T00:16:34.235Z,99219.69
2022-12-08T00:19:01.039Z,99215.28
2022-12-08T00:21:28.385Z,99211.31
2022-12-08T00:23:55.640Z,99205.09
2022-12-08T00:26:22.671Z,99207.91
2022-12-08T00:28:49.470Z,99204.06
2022-12-08T00:31:16.262Z,99200.22
2022-12-08T00:33:43.098Z,99195.84
2022-12-08T00:36:11.291Z,99196.13
2022-12-08T00:38:38.321Z,99198.53
2022-12-08T00:41:11.715Z,99205.47
2022-12-08T00:43:38.521Z,99197.69
2022-12-08T00:46:05.447Z,99200.09
2022-12-08T00:48:32.294Z,99192.69
2022-12-08T00:50:59.075Z,99195.25
2022-12-08T00:53:25.860Z,99194.69
2022-12-08T00:55:52.767Z,99199.50
2022-12-08T00:58:19.824Z,99189.31
2022-12-08T01:00:46.660Z,99190.59
2022-12-08T01:03:13.660Z,99184.47
2022-12-08T01:05:40.513Z,99185.34
2022-12-08T01:08:08.656Z,99186.66
2022-12-08T01:10:38.370Z,99179.84
2022-12-08T01:13:05.194Z,99185.66
2022-12-08T01:15:31.972Z,99188.22
2022-12-08T01:17:58.737Z,99179.69
2022-12-08T01:20:25.549Z,99186.53
2022-12-08T01:22:52.331Z,99179.31
2022-12-08T01:25:19.124Z,99172.19
2022-12-08T01:27:45.957Z,99186.94
2022-12-08T01:30:12.998Z,99176.50
2022-12-08T01:32:39.794Z,99179.03
2022-12-08T01:35:06.709Z,99177.56
2022-12-08T01:37:33.477Z,99168.66
2022-12-08T01:40:00.280Z,99170.63
2022-12-08T01:42:27.034Z,99170.50
2022-12-08T01:44:58.721Z,99171.25
2022-12-08T01:47:27.627Z,99182.44
2022-12-08T01:49:54.579Z,99178.59
2022-12-08T01:52:32.833Z,99173.06
2022-12-08T01:55:06.706Z,99167.00
2022-12-08T01:57:42.915Z,99168.53
2022-12-08T02:00:11.879Z,99168.28
2022-12-08T02:02:46.237Z,99165.44
2022-12-08T02:05:13.778Z,99171.81
2022-12-08T02:07:40.813Z,99173.06
2022-12-08T02:10:08.018Z,99169.44
2022-12-08T02:12:34.845Z,99157.94
2022-12-08T02:15:05.126Z,99155.53
2022-12-08T02:17:42.964Z,99159.38
2022-12-08T02:20:18.907Z,99156.09
2022-12-08T02:22:54.535Z,99147.16
2022-12-08T02:25:28.262Z,99147.28
2022-12-08T02:28:03.978Z,99159.88
2022-12-08T02:30:30.805Z,99147.25
2022-12-08T02:33:00.343Z,99148.56
2022-12-08T02:35:39.535Z,99142.03
2022-12-08T02:38:13.939Z,99141.88
2022-12-08T02:40:49.667Z,99138.19
2022-12-08T02:43:19.546Z,99136.34
2022-12-08T02:45:52.293Z,99136.88
2022-12-08T02:48:19.150Z,99134.03
2022-12-08T02:50:45.955Z,99127.50
2022-12-08T02:56:03.062Z,99140.84
2022-12-08T02:58:29.801Z,99130.91
2022-12-08T03:01:05.597Z,99120.00
2022-12-08T03:03:50.923Z,99129.22
2022-12-08T03:06:29.622Z,99109.63
2022-12-08T03:09:07.608Z,99114.16
2022-12-08T03:11:38.133Z,99109.34
2022-12-08T03:14:07.091Z,99109.75
2022-12-08T03:16:36.602Z,99106.50
2022-12-08T03:19:09.168Z,99111.03
2022-12-08T03:21:37.264Z,99098.72
2022-12-08T03:24:07.144Z,99098.56
2022-12-08T03:26:49.657Z,99099.09
2022-12-08T03:29:16.522Z,99092.84
2022-12-08T03:31:50.646Z,99090.88
2022-12-08T03:34:18.275Z,99094.88
2022-12-08T03:36:45.165Z,99087.94
2022-12-08T03:39:11.998Z,99086.78
2022-12-08T03:41:38.800Z,99086.63
2022-12-08T03:44:05.615Z,99085.91
2022-12-08T03:46:32.415Z,99083.06
2022-12-08T03:48:59.162Z,99079.09
2022-12-08T03:51:26.341Z,99084.75
2022-12-08T03:53:53.577Z,99077.16
2022-12-08T03:56:28.187Z,99074.31
2022-12-08T03:58:55.314Z,99080.00
2022-12-08T04:01:22.554Z,99080.13
2022-12-08T04:03:49.427Z,99072.75
2022-12-08T04:06:16.724Z,99066.41
2022-12-08T04:08:43.558Z,99066.13
2022-12-08T04:11:10.380Z,99066.81
2022-12-08T04:13:37.767Z,99065.25
2022-12-08T04:16:05.286Z,99059.44
2022-12-08T04:18:32.619Z,99065.09
2022-12-08T04:21:00.813Z,99065.97
2022-12-08T04:23:27.668Z,99062.94
2022-12-08T04:25:54.476Z,99059.13
2022-12-08T04:28:21.274Z,99058.41
2022-12-08T04:30:48.423Z,99058.56
2022-12-08T04:33:15.313Z,99058.13
2022-12-08T04:35:42.079Z,99057.56
2022-12-08T04:38:08.983Z,99051.88
2022-12-08T04:40:35.750Z,99053.03
2022-12-08T04:43:02.530Z,99051.50
2022-12-08T04:45:29.331Z,99046.38
2022-12-08T04:47:56.103Z,99046.09
2022-12-08T04:50:22.909Z,99051.06
2022-12-08T04:52:49.695Z,99046.25
2022-12-08T04:55:16.565Z,99049.94
2022-12-08T04:57:43.375Z,99049.81
2022-12-08T05:00:10.370Z,99046.78
2022-12-08T05:02:37.252Z,99042.69
2022-12-08T05:05:04.506Z,99042.88
2022-12-08T05:07:31.344Z,99043.16
2022-12-08T05:09:58.488Z,99046.53
2022-12-08T05:12:25.301Z,99046.16
2022-12-08T05:14:52.123Z,99045.72
2022-12-08T05:17:18.942Z,99048.69
2022-12-08T05:19:45.714Z,99042.19
2022-12-08T05:22:12.485Z,99040.75
2022-12-08T05:24:43.976Z,99045.31
2022-12-08T05:27:13.926Z,99035.97
2022-12-08T05:29:40.661Z,99037.91
2022-12-08T05:32:07.522Z,99031.22
2022-12-08T05:34:34.410Z,99026.69
2022-12-08T05:37:01.224Z,99029.06
2022-12-08T05:39:28.118Z,99028.25
2022-12-08T05:41:54.993Z,99021.34
2022-12-08T05:44:21.771Z,99024.88
2022-12-08T05:46:48.586Z,99018.66
2022-12-08T05:49:15.412Z,99025.28
2022-12-08T05:51:42.227Z,99016.34
2022-12-08T05:54:09.252Z,99017.34
2022-12-08T05:56:36.303Z,99011.97
2022-12-08T05:59:05.192Z,99006.81
2022-12-08T06:01:32.149Z,99007.66
2022-12-08T06:04:00.208Z,99012.59
2022-12-08T06:06:27.489Z,99012.44
2022-12-08T06:08:54.275Z,99014.28
2022-12-08T06:11:22.437Z,99016.00
2022-12-08T06:13:49.704Z,99014.28
2022-12-08T06:16:16.990Z,99015.16
2022-12-08T06:18:44.062Z,99019.00
2022-12-08T06:21:12.236Z,99014.44
2022-12-08T06:23:39.266Z,99008.91
2022-12-08T06:26:15.929Z,99013.47
2022-12-08T06:28:43.398Z,99016.16
2022-12-08T06:31:11.708Z,99010.44
2022-12-08T06:33:38.493Z,99016.84
2022-12-08T06:36:06.049Z,99005.91
2022-12-08T06:38:33.230Z,99011.28
2022-12-08T06:41:00.021Z,99005.66
2022-12-08T06:43:26.838Z,99008.06
2022-12-08T06:45:53.704Z,99015.16
2022-12-08T06:48:20.663Z,99007.34
2022-12-08T06:50:47.445Z,99006.19
2022-12-08T06:53:15.399Z,99005.28
2022-12-08T06:55:59.307Z,99004.81
2022-12-08T06:58:26.601Z,99012.06
2022-12-08T07:00:53.420Z,99008.38
2022-12-08T07:03:20.304Z,99004.50
2022-12-08T07:05:47.090Z,99003.84
2022-12-08T07:08:13.978Z,99007.66
2022-12-08T07:10:40.877Z,99005.13
2022-12-08T07:13:07.651Z,99010.34
2022-12-08T07:15:34.509Z,99006.19
2022-12-08T07:18:01.295Z,99015.72
2022-12-08T07:20:28.131Z,99014.03
2022-12-08T07:22:55.045Z,99020.00
2022-12-08T07:25:22.098Z,99024.16
2022-12-08T07:27:48.910Z,99014.63
2022-12-08T07:30:15.855Z,99016.44
2022-12-08T07:32:42.824Z,99017.31
2022-12-08T07:35:10.060Z,99016.16
2022-12-08T07:37:36.932Z,99015.50
2022-12-08T07:40:05.035Z,99016.75
2022-12-08T07:42:32.254Z,99011.91
2022-12-08T07:44:59.391Z,99016.19
2022-12-08T07:47:26.368Z,99016.06
2022-12-08T07:49:53.153Z,99013.75
2022-12-08T07:52:20.103Z,99007.00
2022-12-08T07:54:47.482Z,99004.94
2022-12-08T07:57:15.158Z,98999.25
2022-12-08T07:59:41.941Z,99005.38
2022-12-08T08:02:27.181Z,99007.59
2022-12-08T08:04:54.589Z,99013.59
2022-12-08T08:07:21.749Z,99010.03
2022-12-08T08:09:48.940Z,99011.28
2022-12-08T08:12:31.332Z,99007.06
2022-12-08T08:14:59.380Z,99009.00
2022-12-08T08:17:26.241Z,99007.16
2022-12-08T08:19:53.109Z,99012.53
2022-12-08T08:22:19.861Z,99009.69
2022-12-08T08:24:46.821Z,99005.28
2022-12-08T08:27:14.163Z,99009.94
2022-12-08T08:29:41.626Z,99006.94
2022-12-08T08:32:08.946Z,99008.78
2022-12-08T08:34:35.904Z,99011.31
2022-12-08T08:37:02.813Z,99008.78
2022-12-08T08:39:29.903Z,99003.69
2022-12-08T08:41:57.554Z,99012.06
2022-12-08T08:44:24.482Z,99015.78
2022-12-08T08:46:51.721Z,99022.31
2022-12-08T08:49:18.521Z,99017.53
2022-12-08T08:51:45.433Z,99015.91
2022-12-08T08:54:12.217Z,99017.31
2022-12-08T08:56:39.005Z,99016.63
2022-12-08T08:59:05.899Z,99012.47
2022-12-08T09:01:33.622Z,99014.31
2022-12-08T09:04:00.563Z,99011.31
2022-12-08T09:06:27.804Z,99015.19
2022-12-08T09:08:54.771Z,99012.47
2022-12-08T09:11:22.654Z,99019.66
2022-12-08T09:13:52.173Z,99021.88
2022-12-08T09:16:19.294Z,99010.41
2022-12-08T09:18:46.550Z,99013.69
2022-12-08T09:21:14.790Z,99012.00
2022-12-08T09:23:41.932Z,99009.25
2022-12-08T09:26:08.827Z,99003.22
2022-12-08T09:28:35.656Z,99012.56
2022-12-08T09:31:02.647Z,99006.31
2022-12-08T09:33:30.608Z,99004.38
2022-12-08T09:36:01.344Z,99004.53
2022-12-08T09:38:28.138Z,99007.16
2022-12-08T09:40:55.088Z,99012.38
2022-12-08T09:43:38.564Z,99007.63
2022-12-08T09:46:07.856Z,99005.38
2022-12-08T09:48:40.497Z,99008.88
2022-12-08T09:51:08.582Z,99008.22
2022-12-08T09:53:38.318Z,99009.38
2022-12-08T09:56:11.088Z,99000.78
2022-12-08T09:58:43.977Z,98997.06
2022-12-08T10:01:11.395Z,98995.13
2022-12-08T10:03:38.164Z,98996.22
2022-12-08T10:06:23.730Z,98993.44
2022-12-08T10:09:11.187Z,98990.75
2022-12-08T10:11:42.401Z,98984.25
2022-12-08T10:14:28.775Z,98984.25
2022-12-08T10:41:24.412Z,98960.03
2022-12-08T10:43:59.635Z,98955.56
2022-12-08T10:46:28.514Z,98955.56
2022-12-08T10:49:10.621Z,98957.38
2022-12-08T10:51:42.155Z,98953.66
2022-12-08T10:54:29.177Z,98952.13
2022-12-08T10:56:57.247Z,98950.44
2022-12-08T10:59:25.164Z,98946.44
2022-12-08T11:01:54.680Z,98943.25
2022-12-08T11:04:26.699Z,98957.81
2022-12-08T11:06:53.717Z,98949.41
2022-12-08T11:09:20.705Z,98947.22
2022-12-08T11:11:57.756Z,98942.31
2022-12-08T11:14:26.164Z,98944.56
2022-12-08T11:16:56.841Z,98933.13
2022-12-08T11:19:26.645Z,98935.84
2022-12-08T11:21:54.275Z,98930.31
2022-12-08T11:24:24.257Z,98932.19
2022-12-08T11:27:00.215Z,98925.63
2022-12-08T11:29:29.189Z,98929.34
2022-12-08T11:32:11.772Z,98928.00
2022-12-08T11:34:43.948Z,98916.72
2022-12-08T11:37:37.377Z,98919.09
2022-12-08T11:40:16.234Z,98919.13
2022-12-08T11:43:03.694Z,98915.91
2022-12-08T11:45:34.711Z,98902.22
2022-12-08T11:48:16.322Z,98910.19
2022-12-08T11:50:50.515Z,98903.09
2022-12-08T11:53:33.877Z,98914.09
2022-12-08T11:56:10.084Z,98900.59
2022-12-08T11:58:55.880Z,98897.38
2022-12-08T12:01:25.079Z,98897.03
2022-12-08T12:04:03.220Z,98894.63
2022-12-08T12:07:00.419Z,98890.59
2022-12-08T12:10:11.460Z,98889.78
2022-12-08T12:13:16.983Z,98891.59
2022-12-08T12:16:05.307Z,98887.69
2022-12-08T12:18:41.216Z,98884.84
2022-12-08T12:21:15.221Z,98877.59
2022-12-08T12:23:47.091Z,98885.88
2022-12-08T12:26:22.329Z,98880.97
2022-12-08T12:28:54.504Z,98880.97
2022-12-08T12:31:28.894Z,98887.09
2022-12-08T12:34:06.847Z,98870.88
2022-12-08T12:36:47.927Z,98871.84
2022-12-08T12:39:17.755Z,98870.50
2022-12-08T12:41:59.709Z,98864.94
2022-12-08T12:44:29.508Z,98868.81
2022-12-08T12:47:01.463Z,98874.94
2022-12-08T12:49:40.684Z,98871.03
2022-12-08T12:52:16.860Z,98870.84
2022-12-08T12:55:04.683Z,98872.19
2022-12-08T12:57:39.644Z,98867.59
2022-12-08T13:00:09.314Z,98867.94
2022-12-08T13:02:36.532Z,98869.78
2022-12-08T13:05:03.500Z,98874.34
2022-12-08T13:07:35.700Z,98871.28
2022-12-08T13:10:16.558Z,98872.13
2022-12-08T13:12:46.042Z,98864.88
2022-12-08T13:15:19.678Z,98864.53
2022-12-08T13:17:48.988Z,98866.91
2022-12-08T13:20:22.976Z,98865.38
2022-12-08T13:22:50.143Z,98863.00
2022-12-08T13:25:38.884Z,98864.56
2022-12-08T13:28:15.881Z,98858.94
2022-12-08T13:30:45.603Z,98856.22
2022-12-08T13:33:38.242Z,98851.84
2022-12-08T13:36:32.555Z,98853.00
2022-12-08T13:39:01.283Z,98856.19
2022-12-08T13:41:38.675Z,98850.97
2022-12-08T13:58:41.806Z,98854.84
2022-12-08T14:01:41.107Z,98851.19
2022-12-08T14:04:42.519Z,98847.59
2022-12-08T14:07:02.959Z,98855.03
2022-12-08T14:09:36.660Z,98856.03
2022-12-08T14:12:09.079Z,98855.38
2022-12-08T14:15:01.717Z,98854.66
2022-12-08T14:17:27.762Z,98854.44
2022-12-08T14:19:57.729Z,98853.09
2022-12-08T14:22:25.299Z,98857.28
2022-12-08T14:24:54.221Z,98854.44
2022-12-08T14:27:26.684Z,98853.91
2022-12-08T14:29:59.890Z,98852.22
2022-12-08T14:32:32.694Z,98857.09
2022-12-08T14:35:08.591Z,98856.41
2022-12-08T14:37:42.540Z,98852.34
2022-12-08T14:40:22.723Z,98849.66
2022-12-08T14:43:12.058Z,98853.53
2022-12-08T14:45:39.010Z,98853.38
2022-12-08T14:48:22.662Z,98860.09
2022-12-08T14:51:05.313Z,98858.22
2022-12-08T14:53:39.974Z,98860.75
2022-12-08T14:56:33.236Z,98865.34
2022-12-08T14:59:14.008Z,98861.09
2022-12-08T15:01:43.062Z,98861.94
2022-12-08T15:04:13.086Z,98853.31
2022-12-08T15:07:01.406Z,98858.53
2022-12-08T15:09:41.205Z,98865.91
2022-12-08T15:12:14.382Z,98856.94
2022-12-08T15:14:53.699Z,98863.03
2022-12-08T15:17:35.294Z,98860.81
2022-12-08T15:20:03.385Z,98859.91
2022-12-08T15:22:30.877Z,98865.97
2022-12-08T15:24:58.203Z,98868.16
2022-12-08T15:27:25.661Z,98862.34
2022-12-08T15:29:52.977Z,98868.59
2022-12-08T15:32:22.865Z,98866.50
2022-12-08T15:34:50.195Z,98871.53
2022-12-08T15:37:25.316Z,98867.97
2022-12-08T15:39:52.895Z,98868.47
2022-12-08T15:42:19.904Z,98867.78
2022-12-08T15:44:46.862Z,98872.63
2022-12-08T15:47:19.288Z,98865.72
2022-12-08T15:49:47.792Z,98860.78
2022-12-08T15:52:18.365Z,98865.88
2022-12-08T15:54:45.921Z,98863.09
2022-12-08T16:00:51.343Z,98858.94
2022-12-08T16:04:27.577Z,98864.66
2022-12-08T16:09:25.957Z,98856.97
2022-12-08T16:12:10.105Z,98860.66
2022-12-08T16:17:26.398Z,98854.88
2022-12-08T16:19:53.604Z,98852.50
2022-12-08T16:25:20.299Z,98849.72
2022-12-08T16:28:44.805Z,98850.41
2022-12-08T16:30:40.480Z,98859.50
2022-12-08T16:33:07.691Z,98859.50
2022-12-08T16:35:34.721Z,98859.19
2022-12-08T16:38:01.711Z,98853.41
2022-12-08T16:40:28.795Z,98866.88
2022-12-08T16:42:55.957Z,98849.88
2022-12-08T16:45:30.073Z,98846.19
2022-12-08T16:48:01.624Z,98844.94
2022-12-08T16:50:31.562Z,98847.78
2022-12-08T16:53:00.582Z,98848.09
2022-12-08T16:55:28.033Z,98847.88
2022-12-08T16:57:55.421Z,98847.88
2022-12-08T17:00:27.970Z,98861.50
2022-12-08T17:02:55.248Z,98858.22
2022-12-08T17:05:24.847Z,98856.00
2022-12-08T17:07:53.236Z,98854.84
2022-12-08T17:10:23.017Z,98850.88
2022-12-08T17:12:50.660Z,98855.16
2022-12-08T17:15:21.147Z,98858.38
2022-12-08T17:17:48.673Z,98862.22
2022-12-08T17:20:18.630Z,98843.56
2022-12-08T17:22:46.095Z,98846.41
2022-12-08T17:25:13.378Z,98833.22
2022-12-08T17:27:41.312Z,98841.44
2022-12-08T17:30:10.756Z,98839.75
2022-12-08T17:32:38.605Z,98839.91
2022-12-08T17:35:06.274Z,98846.31
2022-12-08T17:37:33.987Z,98845.59
2022-12-08T17:40:01.610Z,98841.06
2022-12-08T17:42:28.808Z,98848.28
2022-12-08T17:44:55.834Z,98846.59
2022-12-08T17:47:22.916Z,98838.81
2022-12-08T17:49:50.031Z,98845.72
2022-12-08T17:52:17.005Z,98847.91
2022-12-08T17:54:44.139Z,98842.75
2022-12-08T17:57:11.234Z,98848.13
2022-12-08T17:59:38.219Z,98848.28
2022-12-08T18:02:06.508Z,98841.75
2022-12-08T18:04:33.591Z,98838.50
2022-12-08T18:07:00.657Z,98840.34
2022-12-08T18:09:29.932Z,98846.16
2022-12-08T18:11:56.943Z,98836.50
2022-12-08T18:14:23.978Z,98829.28
2022-12-08T18:16:51.065Z,98834.13
2022-12-08T18:19:18.117Z,98843.59
2022-12-08T18:21:45.126Z,98848.13
2022-12-08T18:24:17.650Z,98836.34
2022-12-08T18:26:45.240Z,98842.59
2022-12-08T18:29:12.286Z,98842.75
2022-12-08T18:31:39.290Z,98832.97
2022-12-08T18:34:06.361Z,98838.50
2022-12-08T18:36:34.426Z,98836.22
2022-12-08T18:39:05.756Z,98837.75
2022-12-08T18:41:35.848Z,98831.84
2022-12-08T18:44:02.902Z,98835.53
2022-12-08T18:46:30.076Z,98832.13
2022-12-08T18:48:57.144Z,98828.00
2022-12-08T18:51:24.217Z,98835.78
2022-12-08T18:53:51.763Z,98836.44
2022-12-08T18:56:21.516Z,98839.47
2022-12-08T18:58:48.642Z,98833.53
2022-12-08T19:01:15.743Z,98833.38
2022-12-08T19:03:52.831Z,98842.44
2022-12-08T19:06:30.049Z,98841.16
2022-12-08T19:08:57.558Z,98837.91
2022-12-08T19:11:27.646Z,98837.91
2022-12-08T19:13:55.571Z,98843.47
2022-12-08T19:16:23.142Z,98834.81
2022-12-08T19:18:50.343Z,98840.78
2022-12-08T19:21:17.961Z,98838.59
2022-12-08T19:23:45.067Z,98841.59
2022-12-08T19:26:12.124Z,98841.16
2022-12-08T19:28:39.122Z,98826.97
2022-12-08T19:31:07.918Z,98829.69
2022-12-08T19:33:35.508Z,98828.84
2022-12-08T19:36:12.175Z,98836.06
2022-12-08T19:38:40.006Z,98838.75
2022-12-08T19:41:08.464Z,98837.06
2022-12-08T19:43:35.443Z,98839.47
2022-12-08T19:46:02.578Z,98838.75
2022-12-08T19:48:29.635Z,98839.75
2022-12-08T19:50:57.117Z,98845.97
2022-12-08T19:53:24.184Z,98843.13
2022-12-08T19:55:51.340Z,98845.44
2022-12-08T19:58:18.628Z,98844.91
2022-12-08T20:00:48.301Z,98846.88
2022-12-08T20:03:17.304Z,98848.91
2022-12-08T20:05:45.591Z,98850.72
2022-12-08T20:08:12.651Z,98844.53
2022-12-08T20:10:43.494Z,98844.81
2022-12-08T20:13:11.403Z,98847.41
2022-12-08T20:15:38.451Z,98850.84
2022-12-08T20:18:05.815Z,98851.00
2022-12-08T20:20:32.969Z,98848.97
2022-12-08T20:22:59.994Z,98856.38
2022-12-08T20:25:27.177Z,98850.28
2022-12-08T20:27:54.259Z,98851.13
2022-12-08T20:30:21.243Z,98846.03
2022-12-08T20:32:48.260Z,98845.03
2022-12-08T20:35:16.085Z,98847.59
2022-12-08T20:37:43.161Z,98839.81
2022-12-08T20:40:13.503Z,98834.41
2022-12-08T20:42:40.625Z,98834.88
2022-12-08T20:45:08.271Z,98838.13
2022-12-08T20:47:36.686Z,98838.44
2022-12-08T20:50:05.998Z,98844.78
2022-12-08T20:52:33.259Z,98842.09
2022-12-08T20:55:00.347Z,98842.09
2022-12-08T20:57:27.511Z,98842.81
2022-12-08T20:59:54.483Z,98848.06
2022-12-08T21:02:21.633Z,98839.25
2022-12-08T21:04:48.942Z,98846.91
2022-12-08T21:07:16.144Z,98842.06
2022-12-08T21:09:44.088Z,98841.06
2022-12-08T21:12:11.312Z,98843.91
2022-12-08T21:14:38.434Z,98840.91
2022-12-08T21:17:05.705Z,98847.31
2022-12-08T21:19:32.975Z,98842.91
2022-12-08T21:22:00.075Z,98845.63
2022-12-08T21:24:33.753Z,98841.91
2022-12-08T21:27:01.617Z,98841.38
2022-12-08T21:29:28.631Z,98851.81
2022-12-08T21:31:58.655Z,98841.53
2022-12-08T21:34:26.612Z,98841.38
2022-12-08T21:36:53.669Z,98847.31
2022-12-08T21:39:20.818Z,98847.59
2022-12-08T21:41:47.974Z,98848.06
2022-12-08T21:44:16.759Z,98847.88
2022-12-08T21:46:44.643Z,98850.75
2022-12-08T21:49:11.985Z,98851.03
2022-12-08T21:51:39.177Z,98851.19
2022-12-08T21:54:06.172Z,98855.56
2022-12-08T21:56:33.281Z,98852.56
2022-12-08T21:59:00.542Z,98849.75
2022-12-08T22:01:27.678Z,98854.97
2022-12-08T22:03:54.987Z,98850.44
2022-12-08T22:06:22.131Z,98852.16
2022-12-08T22:08:49.152Z,98849.59
2022-12-08T22:11:16.470Z,98849.13
2022-12-08T22:13:43.771Z,98853.97
2022-12-08T22:16:12.620Z,98850.00
2022-12-08T22:18:40.633Z,98846.16
2022-12-08T22:21:16.372Z,98840.66
2022-12-08T22:23:44.464Z,98851.00
2022-12-08T22:26:11.789Z,98854.50
2022-12-08T22:28:41.094Z,98848.44
2022-12-08T22:31:19.332Z,98847.19
2022-12-08T22:33:47.594Z,98850.44
2022-12-08T22:36:21.286Z,98846.03
2022-12-08T22:38:48.738Z,98850.44
2022-12-08T22:41:16.787Z,98846.03
2022-12-08T22:43:44.797Z,98853.84
2022-12-08T22:46:18.115Z,98848.31
2022-12-08T22:48:45.671Z,98850.13
2022-12-08T22:51:13.949Z,98848.44
2022-12-08T22:53:41.254Z,98848.75
2022-12-08T22:56:11.034Z,98844.22
2022-12-08T22:58:39.474Z,98838.84
2022-12-08T23:01:08.459Z,98840.22
2022-12-08T23:03:35.610Z,98844.91
2022-12-08T23:06:11.622Z,98838.69
2022-12-08T23:08:38.866Z,98835.81
2022-12-08T23:11:06.176Z,98838.38
2022-12-08T23:13:33.200Z,98832.44
2022-12-08T23:16:00.248Z,98833.59
2022-12-08T23:18:27.313Z,98833.59
2022-12-08T23:20:54.436Z,98833.59
2022-12-08T23:23:21.638Z,98831.19
2022-12-08T23:25:48.915Z,98828.34
2022-12-08T23:28:16.174Z,98830.50
2022-12-08T23:30:43.196Z,98824.28
2022-12-08T23:33:10.223Z,98823.13
2022-12-08T23:35:37.648Z,98825.97
2022-12-08T23:38:04.698Z,98826.97
2022-12-08T23:40:31.932Z,98823.28
2022-12-08T23:42:59.162Z,98824.28
2022-12-08T23:45:26.294Z,98822.72
2022-12-08T23:47:53.337Z,98816.94
2022-12-08T23:50:20.284Z,98817.78
2022-12-08T23:52:47.355Z,98812.53
2022-12-08T23:55:14.527Z,98809.59
2022-12-08T23:57:41.576Z,98807.09
